createdAt,value
2023-02-05T00:00:19.779Z,11.20
2023-02-05T00:02:47.033Z,13.00
2023-02-05T00:05:13.501Z,9.80
2023-02-05T00:07:40.276Z,10.88
2023-02-05T00:10:07.078Z,9.45
2023-02-05T00:12:33.601Z,8.23
2023-02-05T00:15:00.153Z,8.98
2023-02-05T00:17:26.692Z,10.27
2023-02-05T00:19:53.201Z,7.75
2023-02-05T00:22:19.659Z,7.75
2023-02-05T00:24:46.190Z,10.30
2023-02-05T00:27:12.702Z,13.35
2023-02-05T00:29:39.163Z,9.55
2023-02-05T00:32:05.859Z,7.60
2023-02-05T00:34:32.402Z,8.73
2023-02-05T00:36:58.959Z,5.63
2023-02-05T00:39:25.425Z,6.55
2023-02-05T00:41:51.906Z,9.10
2023-02-05T00:44:18.428Z,9.05
2023-02-05T00:46:44.927Z,8.77
2023-02-05T00:49:11.494Z,11.55
2023-02-05T00:51:37.997Z,12.57
2023-02-05T00:54:04.625Z,10.07
2023-02-05T00:56:31.144Z,8.80
2023-02-05T00:58:57.796Z,9.82
2023-02-05T01:01:25.104Z,9.20
2023-02-05T01:03:51.652Z,10.85
2023-02-05T01:06:18.249Z,9.63
2023-02-05T01:08:44.856Z,12.05
2023-02-05T01:11:11.482Z,12.75
2023-02-05T01:13:39.355Z,9.55
2023-02-05T01:16:06.179Z,8.82
2023-02-05T01:18:32.760Z,10.80
2023-02-05T01:20:59.416Z,12.75
2023-02-05T01:23:26.052Z,12.25
2023-02-05T01:25:52.671Z,10.90
2023-02-05T01:28:19.299Z,11.68
2023-02-05T01:30:50.704Z,10.88
2023-02-05T01:33:18.363Z,7.43
2023-02-05T01:35:45.315Z,9.32
2023-02-05T01:38:13.058Z,10.38
2023-02-05T01:40:40.431Z,11.52
2023-02-05T01:43:12.881Z,11.15
2023-02-05T01:46:00.899Z,11.15
2023-02-05T01:48:36.799Z,12.82
2023-02-05T01:51:08.336Z,13.15
2023-02-05T01:53:37.226Z,14.45
2023-02-05T01:56:08.825Z,8.98
2023-02-05T01:58:40.421Z,11.60
2023-02-05T02:01:07.123Z,10.98
2023-02-05T02:03:33.654Z,11.07
2023-02-05T02:06:00.256Z,9.48
2023-02-05T02:08:27.066Z,9.82
2023-02-05T02:10:57.068Z,11.27
2023-02-05T02:13:27.186Z,13.07
2023-02-05T02:15:54.380Z,9.75
2023-02-05T02:18:27.809Z,10.32
2023-02-05T02:21:13.090Z,12.43
2023-02-05T02:24:11.052Z,10.32
2023-02-05T02:27:05.546Z,13.55
2023-02-05T02:29:39.817Z,11.13
2023-02-05T02:32:12.450Z,12.23
2023-02-05T02:34:49.191Z,11.27
2023-02-05T02:37:25.031Z,12.55
2023-02-05T02:39:56.413Z,9.57
2023-02-05T02:42:34.455Z,10.00
2023-02-05T02:45:04.661Z,10.20
2023-02-05T02:47:35.622Z,13.18
2023-02-05T02:50:13.205Z,10.20
2023-02-05T02:52:42.460Z,11.80
2023-02-05T02:55:12.617Z,12.80
2023-02-05T02:57:41.657Z,11.02
2023-02-05T03:00:22.571Z,10.45
2023-02-05T03:02:52.106Z,13.80
2023-02-05T03:05:22.017Z,12.23
2023-02-05T03:07:54.454Z,15.32
2023-02-05T03:10:32.278Z,10.45
2023-02-05T03:12:58.877Z,13.07
2023-02-05T03:15:25.684Z,10.73
2023-02-05T03:17:54.782Z,11.02
2023-02-05T03:20:26.908Z,12.95
2023-02-05T03:22:54.838Z,10.85
2023-02-05T03:25:23.139Z,15.10
2023-02-05T03:27:53.125Z,13.57
2023-02-05T03:30:21.247Z,10.80
2023-02-05T03:32:56.858Z,14.30
2023-02-05T03:35:36.876Z,12.90
2023-02-05T03:38:31.557Z,12.50
2023-02-05T03:41:08.131Z,13.02
2023-02-05T03:43:58.349Z,10.20
2023-02-05T03:46:43.773Z,11.23
2023-02-05T03:49:28.164Z,12.40
2023-02-05T03:52:04.892Z,12.57
2023-02-05T03:54:46.628Z,11.48
2023-02-05T03:57:39.278Z,14.80
2023-02-05T04:00:06.699Z,13.18
2023-02-05T04:02:34.300Z,15.70
2023-02-05T04:05:00.861Z,12.90
2023-02-05T04:07:27.439Z,17.85
2023-02-05T04:09:53.979Z,18.52
2023-02-05T04:12:20.518Z,20.73
2023-02-05T04:14:47.092Z,16.42
2023-02-05T04:17:13.737Z,14.68
2023-02-05T04:19:41.551Z,12.48
2023-02-05T04:22:08.078Z,16.05
2023-02-05T04:24:34.552Z,16.15
2023-02-05T04:27:01.017Z,16.88
2023-02-05T04:29:27.654Z,13.90
2023-02-05T04:31:54.183Z,14.35
2023-02-05T04:34:20.739Z,12.52
2023-02-05T04:36:47.257Z,13.07
2023-02-05T04:39:13.772Z,15.60
2023-02-05T04:41:40.240Z,11.85
2023-02-05T04:44:06.951Z,16.20
2023-02-05T04:46:33.587Z,18.02
2023-02-05T04:49:01.228Z,16.38
2023-02-05T04:51:27.776Z,16.70
2023-02-05T04:53:54.323Z,17.00
2023-02-05T04:56:20.784Z,14.05
2023-02-05T04:58:47.262Z,15.43
2023-02-05T05:01:19.629Z,15.57
2023-02-05T05:03:46.748Z,16.27
2023-02-05T05:06:14.478Z,14.43
2023-02-05T05:08:41.317Z,16.80
2023-02-05T05:11:12.845Z,13.45
2023-02-05T05:13:40.195Z,17.45
2023-02-05T05:16:08.131Z,15.07
2023-02-05T05:18:35.201Z,15.02
2023-02-05T05:21:03.005Z,15.68
2023-02-05T05:23:30.190Z,13.65
2023-02-05T05:25:56.684Z,14.63
2023-02-05T05:28:23.292Z,15.40
2023-02-05T05:30:49.920Z,18.30
2023-02-05T05:33:16.557Z,15.50
2023-02-05T05:35:43.212Z,18.20
2023-02-05T05:38:09.736Z,20.08
2023-02-05T05:40:55.024Z,17.50
2023-02-05T05:43:40.110Z,19.17
2023-02-05T05:46:07.686Z,17.40
2023-02-05T05:48:34.894Z,15.15
2023-02-05T05:51:01.526Z,19.20
2023-02-05T05:53:28.388Z,18.08
2023-02-05T05:55:54.897Z,16.30
2023-02-05T05:58:21.418Z,16.02
2023-02-05T06:00:47.906Z,20.77
2023-02-05T06:03:14.435Z,16.27
2023-02-05T06:05:40.928Z,21.17
2023-02-05T06:08:07.627Z,21.50
2023-02-05T06:10:34.262Z,17.25
2023-02-05T06:13:01.050Z,14.32
2023-02-05T06:15:27.546Z,17.55
2023-02-05T06:17:54.156Z,16.77
2023-02-05T06:20:20.813Z,13.77
2023-02-05T06:22:47.336Z,15.55
2023-02-05T06:25:13.854Z,14.18
2023-02-05T06:27:40.358Z,13.52
2023-02-05T06:30:07.297Z,15.43
2023-02-05T06:32:33.795Z,15.45
2023-02-05T06:35:00.319Z,20.77
2023-02-05T06:37:46.150Z,21.45
2023-02-05T06:40:15.828Z,16.55
2023-02-05T06:42:42.772Z,19.13
2023-02-05T06:45:10.375Z,14.18
2023-02-05T06:47:37.817Z,13.63
2023-02-05T06:50:06.131Z,13.02
2023-02-05T06:52:32.687Z,13.93
2023-02-05T06:54:59.186Z,15.95
2023-02-05T06:57:25.806Z,15.30
2023-02-05T06:59:52.281Z,12.75
2023-02-05T07:02:18.901Z,15.15
2023-02-05T07:04:45.885Z,16.60
2023-02-05T07:07:12.508Z,15.88
2023-02-05T07:09:38.982Z,14.90
2023-02-05T07:12:05.935Z,16.63
2023-02-05T07:14:32.429Z,15.57
2023-02-05T07:16:58.926Z,13.43
2023-02-05T07:19:25.489Z,15.07
2023-02-05T07:21:51.948Z,17.38
2023-02-05T07:24:18.427Z,19.13
2023-02-05T07:26:45.366Z,10.85
2023-02-05T07:29:11.856Z,15.82
2023-02-05T07:31:38.504Z,10.80
2023-02-05T07:34:05.085Z,14.88
2023-02-05T07:36:31.609Z,14.02
2023-02-05T07:38:58.160Z,12.57
2023-02-05T07:41:26.847Z,11.88
2023-02-05T07:43:54.571Z,12.07
2023-02-05T07:46:22.315Z,10.75
2023-02-05T07:48:49.120Z,12.93
2023-02-05T07:51:22.090Z,13.18
2023-02-05T07:53:48.886Z,14.13
2023-02-05T07:56:16.189Z,13.23
2023-02-05T07:58:42.787Z,14.15
2023-02-05T08:01:09.780Z,12.18
2023-02-05T08:03:36.442Z,11.38
2023-02-05T08:06:07.499Z,11.60
2023-02-05T08:08:34.712Z,9.85
2023-02-05T08:11:03.928Z,9.75
2023-02-05T08:13:30.731Z,10.45
2023-02-05T08:15:57.887Z,10.27
2023-02-05T08:18:24.495Z,10.15
2023-02-05T08:20:54.844Z,12.07
2023-02-05T08:23:22.228Z,12.07
2023-02-05T08:25:48.842Z,11.88
2023-02-05T08:28:15.455Z,13.30
2023-02-05T08:30:42.043Z,11.43
2023-02-05T08:33:08.599Z,13.10
2023-02-05T08:35:35.430Z,13.43
2023-02-05T08:38:02.245Z,11.00
2023-02-05T08:40:29.104Z,11.43
2023-02-05T08:42:57.806Z,11.25
2023-02-05T08:45:24.808Z,11.23
2023-02-05T08:47:51.403Z,11.65
2023-02-05T08:50:18.735Z,12.57
2023-02-05T08:52:45.492Z,12.07
2023-02-05T08:55:12.422Z,12.20
2023-02-05T08:57:39.412Z,10.30
2023-02-05T09:00:06.476Z,11.27
2023-02-05T09:02:32.961Z,11.38
2023-02-05T09:05:08.356Z,11.43
2023-02-05T09:07:36.195Z,12.98
2023-02-05T09:10:02.709Z,12.30
2023-02-05T09:12:29.245Z,13.98
2023-02-05T09:14:55.755Z,12.15
2023-02-05T09:17:22.242Z,12.65
2023-02-05T09:19:48.748Z,6.28
2023-02-05T09:22:15.256Z,7.25
2023-02-05T09:24:41.755Z,7.95
2023-02-05T09:27:08.302Z,10.73
2023-02-05T09:29:34.819Z,9.68
2023-02-05T09:32:01.301Z,9.45
2023-02-05T09:34:27.841Z,21.48
2023-02-05T09:36:54.383Z,13.85
2023-02-05T09:39:44.332Z,13.10
2023-02-05T09:42:36.051Z,10.25
2023-02-05T09:45:14.938Z,11.15
2023-02-05T09:48:03.235Z,6.28
2023-02-05T09:50:30.745Z,11.75
2023-02-05T09:53:02.757Z,6.05
2023-02-05T09:55:32.765Z,6.25
2023-02-05T09:58:03.098Z,6.85
2023-02-05T10:00:39.307Z,7.75
2023-02-05T10:06:01.969Z,4.78
2023-02-05T10:08:41.210Z,7.20
2023-02-05T10:11:19.275Z,6.30
2023-02-05T10:13:53.296Z,4.95
2023-02-05T10:17:06.728Z,2.92
2023-02-05T10:19:59.228Z,7.03
2023-02-05T10:22:43.717Z,5.22
2023-02-05T10:25:47.542Z,5.80
2023-02-05T10:28:38.403Z,7.53
2023-02-05T10:31:39.402Z,7.60
2023-02-05T10:34:18.429Z,6.57
2023-02-05T10:36:52.074Z,6.55
2023-02-05T10:39:24.951Z,8.80
2023-02-05T10:42:10.191Z,6.30
2023-02-05T10:44:44.561Z,8.80
2023-02-05T10:47:24.084Z,6.80
2023-02-05T10:50:02.298Z,5.18
2023-02-05T10:52:28.981Z,7.07
2023-02-05T10:54:55.935Z,7.45
2023-02-05T10:57:23.956Z,6.25
2023-02-05T11:00:02.218Z,7.35
2023-02-05T11:02:37.939Z,9.85
2023-02-05T11:05:14.965Z,8.07
2023-02-05T11:07:45.536Z,6.50
2023-02-05T11:10:24.692Z,6.38
2023-02-05T11:12:55.071Z,5.50
2023-02-05T11:15:25.367Z,5.05
2023-02-05T11:17:54.932Z,4.82
2023-02-05T11:20:30.732Z,6.82
2023-02-05T11:23:21.239Z,7.53
2023-02-05T11:25:56.508Z,4.32
2023-02-05T11:28:28.364Z,5.93
2023-02-05T11:30:56.022Z,5.53
2023-02-05T11:33:22.871Z,5.47
2023-02-05T11:35:55.894Z,6.00
2023-02-05T11:38:44.427Z,7.63
2023-02-05T11:41:25.939Z,7.70
2023-02-05T11:43:54.007Z,10.32
2023-02-05T11:46:26.233Z,7.82
2023-02-05T11:49:00.214Z,16.85
2023-02-05T11:51:32.628Z,11.80
2023-02-05T11:54:02.504Z,5.85
2023-02-05T11:56:29.035Z,8.20
2023-02-05T11:59:02.945Z,7.30
2023-02-05T12:01:36.198Z,7.88
2023-02-05T12:04:04.459Z,9.15
2023-02-05T12:06:38.468Z,7.38
2023-02-05T12:09:05.664Z,7.38
2023-02-05T12:12:04.339Z,6.80
2023-02-05T12:14:56.133Z,6.78
2023-02-05T12:17:31.902Z,7.25
2023-02-05T12:20:12.217Z,8.25
2023-02-05T12:23:17.493Z,8.30
2023-02-05T12:26:02.587Z,6.82
2023-02-05T12:28:42.650Z,6.20
2023-02-05T12:31:41.214Z,7.25
2023-02-05T12:34:24.796Z,8.93
2023-02-05T12:37:12.051Z,7.05
2023-02-05T12:39:57.780Z,6.32
2023-02-05T12:42:43.069Z,9.50
2023-02-05T12:45:50.997Z,7.28
2023-02-05T12:48:34.764Z,7.10
2023-02-05T12:51:09.614Z,13.15
2023-02-05T12:53:48.087Z,7.00
2023-02-05T12:56:49.565Z,6.90
2023-02-05T12:59:24.801Z,7.57
2023-02-05T13:01:56.709Z,6.97
2023-02-05T13:04:35.227Z,7.97
2023-02-05T13:07:12.077Z,7.60
2023-02-05T13:09:51.458Z,9.27
2023-02-05T13:12:23.345Z,10.50
2023-02-05T13:15:04.802Z,7.05
2023-02-05T13:17:38.330Z,6.07
2023-02-05T13:20:15.277Z,5.30
2023-02-05T13:23:15.288Z,6.85
2023-02-05T13:26:08.094Z,5.65
2023-02-05T13:28:42.422Z,6.88
2023-02-05T13:31:21.570Z,4.40
2023-02-05T13:33:48.630Z,6.78
2023-02-05T13:36:24.003Z,8.60
2023-02-05T13:39:33.743Z,7.25
2023-02-05T13:42:33.312Z,6.82
2023-02-05T13:45:18.653Z,6.00
2023-02-05T13:48:00.487Z,8.60
2023-02-05T13:51:00.847Z,10.15
2023-02-05T13:53:30.451Z,6.85
2023-02-05T13:56:24.641Z,7.20
2023-02-05T13:59:04.730Z,6.95
2023-02-05T14:01:40.869Z,9.18
2023-02-05T14:06:38.280Z,6.25
2023-02-05T14:09:10.040Z,9.68
2023-02-05T14:11:53.191Z,12.07
2023-02-05T14:14:35.316Z,11.15
2023-02-05T14:17:23.308Z,10.85
2023-02-05T14:19:57.075Z,12.02
2023-02-05T14:22:58.155Z,11.57
2023-02-05T14:25:38.186Z,8.63
2023-02-05T14:28:17.210Z,11.65
2023-02-05T14:30:57.499Z,14.70
2023-02-05T14:33:47.342Z,10.75
2023-02-05T14:36:17.227Z,8.13
2023-02-05T14:38:55.500Z,8.88
2023-02-05T14:41:41.969Z,8.85
2023-02-05T14:44:30.612Z,13.27
2023-02-05T14:47:01.932Z,8.32
2023-02-05T14:49:34.304Z,9.57
2023-02-05T14:52:03.712Z,12.63
2023-02-05T14:54:36.392Z,11.23
2023-02-05T14:57:18.278Z,8.70
2023-02-05T14:59:56.750Z,13.77
2023-02-05T15:03:00.884Z,8.93
2023-02-05T15:05:41.964Z,9.77
2023-02-05T15:08:16.406Z,9.38
2023-02-05T15:10:54.677Z,7.45
2023-02-05T15:13:22.401Z,7.90
2023-02-05T15:16:09.662Z,8.63
2023-02-05T15:18:41.476Z,8.55
2023-02-05T15:21:16.299Z,11.02
2023-02-05T15:23:46.646Z,7.28
2023-02-05T15:26:33.883Z,7.90
2023-02-05T15:29:11.102Z,8.27
2023-02-05T15:31:47.142Z,9.50
2023-02-05T15:34:22.913Z,9.50
2023-02-05T15:37:15.108Z,12.85
2023-02-05T15:40:03.443Z,9.88
2023-02-05T15:42:40.275Z,10.93
2023-02-05T15:45:45.080Z,9.48
2023-02-05T15:48:12.060Z,10.27
2023-02-05T15:50:54.901Z,9.80
2023-02-05T15:53:31.546Z,11.73
2023-02-05T15:55:58.342Z,10.18
2023-02-05T15:58:26.471Z,12.05
2023-02-05T16:00:53.714Z,11.00
2023-02-05T16:03:26.144Z,11.85
2023-02-05T16:05:53.226Z,9.88
2023-02-05T16:08:22.493Z,11.00
2023-02-05T16:10:57.728Z,10.75
2023-02-05T16:13:28.438Z,10.33
2023-02-05T16:16:19.116Z,13.10
2023-02-05T16:19:01.282Z,11.40
2023-02-05T16:21:38.338Z,12.57
2023-02-05T16:24:15.181Z,12.57
2023-02-05T16:26:48.827Z,15.85
2023-02-05T16:29:47.694Z,14.85
2023-02-05T16:32:30.406Z,17.60
2023-02-05T16:34:58.426Z,13.60
2023-02-05T16:37:30.661Z,17.35
2023-02-05T16:39:59.935Z,22.05
2023-02-05T16:42:33.329Z,22.85
2023-02-05T16:48:24.908Z,23.30
2023-02-05T16:50:52.769Z,23.02
2023-02-05T16:53:26.820Z,23.50
2023-02-05T16:56:01.932Z,33.65
2023-02-05T16:58:43.915Z,31.58
2023-02-05T17:01:10.805Z,112.18
2023-02-05T17:03:41.690Z,114.90
2023-02-05T17:06:14.427Z,57.95
2023-02-05T17:08:42.613Z,45.80
2023-02-05T17:11:32.236Z,57.28
2023-02-05T17:14:35.824Z,78.68
2023-02-05T17:17:19.752Z,50.85
2023-02-05T17:20:17.522Z,37.78
2023-02-05T17:23:07.438Z,37.00
2023-02-05T17:25:41.404Z,35.08
2023-02-05T17:28:15.118Z,30.48
2023-02-05T17:30:43.960Z,24.90
2023-02-05T17:33:18.164Z,21.13
2023-02-05T17:35:44.817Z,26.17
2023-02-05T17:38:11.539Z,23.58
2023-02-05T17:40:38.424Z,26.63
2023-02-05T17:43:05.119Z,19.65
2023-02-05T17:45:36.246Z,18.05
2023-02-05T17:48:03.188Z,18.75
2023-02-05T17:50:29.746Z,17.13
2023-02-05T17:52:56.270Z,19.08
2023-02-05T17:55:23.518Z,16.15
2023-02-05T17:57:50.099Z,18.10
2023-02-05T18:00:23.118Z,17.23
2023-02-05T18:02:50.162Z,22.17
2023-02-05T18:05:18.999Z,22.40
2023-02-05T18:07:49.936Z,26.50
2023-02-05T18:10:21.909Z,38.72
2023-02-05T18:12:51.096Z,63.50
2023-02-05T18:15:18.011Z,106.60
2023-02-05T18:17:44.573Z,89.45
2023-02-05T18:20:12.509Z,78.95
2023-02-05T18:22:39.536Z,103.55
2023-02-05T18:25:06.751Z,82.07
2023-02-05T18:27:34.056Z,101.35
2023-02-05T18:30:00.796Z,93.22
2023-02-05T18:32:27.982Z,80.80
2023-02-05T18:34:54.661Z,110.88
2023-02-05T18:37:21.405Z,146.05
2023-02-05T18:39:48.488Z,105.25
2023-02-05T18:42:15.098Z,93.53
2023-02-05T18:44:41.830Z,83.88
2023-02-05T18:47:08.536Z,65.72
2023-02-05T18:49:35.842Z,67.28
2023-02-05T18:52:02.712Z,98.68
2023-02-05T18:57:01.810Z,114.07
2023-02-05T18:59:28.312Z,109.10
2023-02-05T19:01:55.101Z,102.75
2023-02-05T19:04:22.007Z,181.02
2023-02-05T19:06:52.630Z,88.93
2023-02-05T19:09:21.890Z,46.90
2023-02-05T19:11:49.133Z,35.00
2023-02-05T19:14:18.490Z,27.83
2023-02-05T19:16:47.065Z,39.08
2023-02-05T19:19:20.163Z,43.60
2023-02-05T19:21:48.885Z,57.63
2023-02-05T19:24:17.361Z,58.47
2023-02-05T19:26:44.585Z,49.88
2023-02-05T19:29:16.950Z,52.75
2023-02-05T19:31:45.297Z,57.58
2023-02-05T19:34:12.320Z,55.10
2023-02-05T19:36:39.487Z,55.53
2023-02-05T19:39:08.628Z,73.47
2023-02-05T19:41:37.062Z,63.55
2023-02-05T19:44:07.411Z,58.72
2023-02-05T19:46:44.280Z,79.25
2023-02-05T19:49:18.953Z,98.50
2023-02-05T19:51:51.574Z,63.90
2023-02-05T19:54:21.352Z,66.88
2023-02-05T19:56:48.425Z,67.22
2023-02-05T19:59:16.974Z,61.03
2023-02-05T20:01:45.061Z,60.38
2023-02-05T20:04:17.111Z,55.13
2023-02-05T20:06:46.522Z,56.30
2023-02-05T20:09:14.989Z,64.82
2023-02-05T20:11:44.274Z,60.42
2023-02-05T20:14:11.330Z,58.78
2023-02-05T20:16:40.419Z,65.30
2023-02-05T20:19:09.646Z,76.15
2023-02-05T20:21:36.173Z,67.45
2023-02-05T20:24:04.836Z,63.92
2023-02-05T20:26:31.700Z,62.38
2023-02-05T20:29:16.839Z,61.35
2023-02-05T20:31:47.318Z,67.45
2023-02-05T20:34:20.644Z,65.65
2023-02-05T20:36:50.108Z,67.30
2023-02-05T20:39:18.752Z,72.05
2023-02-05T20:41:46.704Z,82.25
2023-02-05T20:44:13.459Z,129.00
2023-02-05T20:46:40.304Z,99.68
2023-02-05T20:49:09.028Z,80.38
2023-02-05T20:51:36.495Z,105.75
2023-02-05T20:54:03.849Z,103.70
2023-02-05T20:56:31.448Z,100.80
2023-02-05T20:59:00.399Z,98.30
2023-02-05T21:01:28.659Z,81.07
2023-02-05T21:04:01.198Z,85.32
2023-02-05T21:06:31.108Z,89.03
2023-02-05T21:08:58.004Z,79.38
2023-02-05T21:11:25.988Z,75.80
2023-02-05T21:13:53.002Z,82.68
2023-02-05T21:16:23.027Z,74.82
2023-02-05T21:18:51.475Z,84.75
2023-02-05T21:21:23.887Z,83.25
2023-02-05T21:23:55.714Z,83.30
2023-02-05T21:26:25.566Z,70.00
2023-02-05T21:28:55.121Z,72.68
2023-02-05T21:31:22.528Z,73.78
2023-02-05T21:33:49.216Z,77.78
2023-02-05T21:36:17.910Z,77.20
2023-02-05T21:38:44.746Z,91.18
2023-02-05T21:41:13.746Z,84.78
2023-02-05T21:43:40.903Z,83.38
2023-02-05T21:46:10.350Z,95.70
2023-02-05T21:48:37.136Z,90.35
2023-02-05T21:51:09.668Z,83.50
2023-02-05T21:53:36.708Z,85.18
2023-02-05T21:56:06.185Z,80.57
2023-02-05T21:58:37.075Z,81.10
2023-02-05T22:01:18.380Z,78.40
2023-02-05T22:03:50.849Z,84.80
2023-02-05T22:06:18.527Z,86.28
2023-02-05T22:08:48.155Z,84.05
2023-02-05T22:11:15.243Z,76.82
2023-02-05T22:13:44.021Z,80.13
2023-02-05T22:16:16.260Z,78.05
2023-02-05T22:18:43.306Z,83.72
2023-02-05T22:21:12.926Z,75.82
2023-02-05T22:26:12.548Z,78.63
2023-02-05T22:28:39.188Z,77.57
2023-02-05T22:31:08.065Z,79.65
2023-02-05T22:33:35.986Z,86.30
2023-02-05T22:36:03.375Z,79.53
2023-02-05T22:38:35.862Z,80.00
2023-02-05T22:41:07.680Z,78.43
2023-02-05T22:43:34.265Z,85.70
2023-02-05T22:46:12.776Z,82.97
2023-02-05T22:48:41.612Z,86.88
2023-02-05T22:51:10.681Z,107.45
2023-02-05T22:53:37.922Z,85.18
2023-02-05T22:56:07.649Z,79.57
2023-02-05T22:58:35.171Z,105.93
2023-02-05T23:01:29.326Z,92.22
2023-02-05T23:03:57.117Z,98.20
2023-02-05T23:06:27.435Z,102.38
2023-02-05T23:08:59.624Z,97.75
2023-02-05T23:11:27.842Z,125.72
2023-02-05T23:13:55.716Z,124.07
2023-02-05T23:16:27.403Z,139.75
2023-02-05T23:18:57.110Z,154.32
2023-02-05T23:21:25.684Z,128.88
2023-02-05T23:23:52.201Z,125.65
2023-02-05T23:26:27.246Z,122.85
2023-02-05T23:28:55.068Z,127.82
2023-02-05T23:31:24.561Z,160.63
2023-02-05T23:33:52.528Z,111.20
2023-02-05T23:36:19.121Z,110.60
2023-02-05T23:38:45.996Z,100.40
2023-02-05T23:41:13.129Z,97.45
2023-02-05T23:43:40.266Z,91.22
2023-02-05T23:46:07.783Z,88.75
2023-02-05T23:48:34.333Z,100.07
2023-02-05T23:51:00.911Z,93.50
2023-02-05T23:53:27.480Z,101.60
2023-02-05T23:55:55.008Z,84.95
2023-02-05T23:58:25.929Z,95.95
